Observations for SAINT-BRIEUC ARMOR, France (LFRT)

LFRT 221300Z AUTO 27014KT 9999 BKN022 BKN074 BKN086 07/03 Q1005 
LFRT 221230Z AUTO 27012KT CAVOK 08/04 Q1006 
LFRT 221200Z AUTO 28012KT 9999 FEW025 OVC120 07/03 Q1006
LFRT 221130Z AUTO 27008KT CAVOK 07/03 Q1007 
LFRT 221100Z AUTO 26010KT CAVOK 06/03 Q1007 
LFRT 221030Z AUTO 27010KT CAVOK 06/03 Q1008 
LFRT 221000Z AUTO 26011KT CAVOK 06/03 Q1008 
LFRT 220930Z AUTO 26012KT 9999 FEW031 05/03 Q1008   
LFRT 220900Z AUTO 27008KT 9999 FEW033 04/02 Q1008   
LFRT 220830Z AUTO 25008KT CAVOK 02/02 Q1008 
LFRT 220800Z AUTO 27006KT 9999 FEW038 02/00 Q1008   
LFRT 220730Z AUTO 29007KT 9999 -RA SCT022 BKN031 BKN044 03/02 Q1008 
LFRT 220700Z AUTO 27008KT 9999 ///TCU 03/01 Q1008   
LFRT 212200Z AUTO 20008KT 160V240 9999 -DZ FEW020 BKN045 OVC058 05/03 Q1016 
LFRT 212130Z AUTO 20007KT 170V250 9999 SCT034 OVC054 05/02 Q1016
LFRT 212100Z AUTO 21009KT 170V250 9999 FEW043 BKN054 OVC180 05/02 Q1017 
LFRT 212030Z AUTO 22008KT 160V250 9999 OVC045 05/02 Q1017   
LFRT 212000Z AUTO 21007KT 180V240 CAVOK 05/02 Q1018 
LFRT 211930Z AUTO 21006KT 150V270 CAVOK 05/02 Q1018 
LFRT 211900Z AUTO 21007KT 170V250 CAVOK 05/02 Q1019 
LFRT 211830Z AUTO 22005KT 150V260 9999 FEW041 OVC052 05/02 Q1019
LFRT 211800Z AUTO 22006KT 170V250 9999 BKN041 OVC050 05/03 Q1020
LFRT 211730Z AUTO 23006KT 9999 OVC045 06/03 Q1021   
LFRT 211700Z AUTO 24004KT 200V260 9999 OVC049 05/03 Q1021   
LFRT 211630Z AUTO 25006KT 9999 BKN029 OVC050 05/03 Q1021
LFRT 211600Z AUTO 23004KT 190V270 9999 OVC045 06/03 Q1021   
LFRT 211530Z AUTO 25006KT 9999 OVC046 06/03 Q1021   
LFRT 211500Z AUTO 26007KT 9999 SCT018 SCT034 OVC043 07/04 Q1022 
LFRT 211430Z AUTO 25004KT 9999 FEW020 OVC041 07/03 Q1022
LFRT 211400Z AUTO VRB02KT 9999 SCT021 BKN029 BKN036 07/03 Q1022 
LFRT 211330Z AUTO VRB02KT 9999 BKN019 BKN025 BKN044 07/03 Q1023 
LFRT 211300Z AUTO VRB02KT 9999 FEW043 07/03 Q1023   
LFRT 211230Z AUTO 17003KT 140V210 9999 FEW012 BKN035 OVC042 06/03 Q1023